Current | Forecast
Updated: 2:00 AM MSK on May 28, 2018
Observed at Saratov, Russia
Temperature 59°F
Humidity 34%
Dew Point 30°F
Wind West at 9 mph
Wind Gust 20 mph
Pressure 30.15 in (Steady)
Conditions Clear
Visibility -
UV N/A
Clouds
Yesterday's Maximum 68°F
Yesterday's Minimum 45°F approx.
Yesterday's Heating Degree Days 9 approx.
Sunrise3:46 AM MSK
Sunset8:01 PM MSK
Moon Rise6:32 PM MSK
Moon Set3:37 AM MSK
Moon PhaseMoon Phase
Waxing Gibbous
Raw METARMETAR UWSS 272300Z 27004G09MPS CAVOK 15/M01 Q1021 R30/010095 NOSIG RMK QFE752


Monday
. High: 73° F.
Tuesday
. High: 71° F.
Wednesday
. High: 66° F.
Thursday
. High: 59° F.
Friday
. High: 59° F.
Saturday
. High: 59° F.
Sunday
. High: 66° F.
Monday
. High: 68° F.

Units: English | Metric

Find the Weather for any City, State or Zipcode, or Country:

U.S. State List | Severe Weather | Tropical Storms | Ski Conditions
United States | Canada | Central America | South America | Asia | Europe | Australia | Africa | Islands

Weather Underground

© Copyright 2018
The Weather Company, LLC